createdAt,value
2019-01-22T00:01:20.291Z,56.67
2019-01-22T00:03:49.782Z,56.96
2019-01-22T00:06:19.464Z,56.68
2019-01-22T00:08:48.947Z,56.77
2019-01-22T00:11:18.446Z,56.65
2019-01-22T00:13:47.928Z,56.59
2019-01-22T00:16:17.412Z,56.92
2019-01-22T00:18:46.888Z,56.75
2019-01-22T00:21:16.369Z,56.59
2019-01-22T00:23:45.861Z,56.61
2019-01-22T00:26:15.368Z,56.93
2019-01-22T00:28:44.860Z,57.10
2019-01-22T00:31:14.346Z,56.80
2019-01-22T00:33:43.831Z,56.46
2019-01-22T00:36:13.309Z,56.84
2019-01-22T00:38:42.852Z,56.60
2019-01-22T00:41:12.346Z,56.54
2019-01-22T00:43:42.790Z,56.55
2019-01-22T00:46:12.357Z,56.42
2019-01-22T00:48:41.840Z,56.26
2019-01-22T00:51:11.321Z,56.75
2019-01-22T00:53:40.807Z,56.79
2019-01-22T00:56:10.361Z,56.39
2019-01-22T00:58:40.109Z,56.71
2019-01-22T01:01:09.605Z,57.00
2019-01-22T01:03:39.082Z,57.69
2019-01-22T01:06:08.640Z,57.46
2019-01-22T01:08:38.171Z,57.17
2019-01-22T01:11:07.613Z,57.40
2019-01-22T01:13:37.095Z,56.73
2019-01-22T01:16:06.575Z,57.18
2019-01-22T01:18:36.054Z,56.51
2019-01-22T01:21:05.623Z,56.41
2019-01-22T01:23:35.101Z,56.39
2019-01-22T01:26:04.753Z,56.33
2019-01-22T01:28:34.236Z,55.93
2019-01-22T01:31:03.722Z,56.32
2019-01-22T01:33:33.193Z,56.60
2019-01-22T01:36:02.675Z,56.39
2019-01-22T01:38:32.544Z,56.67
2019-01-22T01:41:02.047Z,56.55
2019-01-22T01:43:31.527Z,57.03
2019-01-22T01:46:01.014Z,56.74
2019-01-22T01:48:30.499Z,56.67
2019-01-22T01:50:59.991Z,56.82
2019-01-22T01:53:29.461Z,56.62
2019-01-22T01:55:58.942Z,56.82
2019-01-22T01:58:28.418Z,56.67
2019-01-22T02:00:57.903Z,57.19
2019-01-22T02:03:27.379Z,56.51
2019-01-22T02:05:57.265Z,56.60
2019-01-22T02:08:26.757Z,56.81
2019-01-22T02:10:56.264Z,56.18
2019-01-22T02:13:36.363Z,55.67
2019-01-22T02:16:53.985Z,55.85
2019-01-22T02:20:05.829Z,55.44
2019-01-22T02:23:30.720Z,54.62
2019-01-22T02:26:29.191Z,55.39
2019-01-22T02:29:41.607Z,55.05
2019-01-22T02:32:51.134Z,54.90
2019-01-22T02:35:46.240Z,54.67
2019-01-22T02:38:37.010Z,54.74
2019-01-22T02:41:26.370Z,54.65
2019-01-22T02:44:33.277Z,54.53
2019-01-22T02:47:27.816Z,54.42
2019-01-22T02:50:32.395Z,54.45
2019-01-22T02:53:39.050Z,54.24
2019-01-22T02:56:32.156Z,54.48
2019-01-22T02:59:32.927Z,54.81
2019-01-22T03:02:27.117Z,54.18
2019-01-22T03:05:21.776Z,54.38
2019-01-22T03:08:07.673Z,54.66
2019-01-22T03:10:51.694Z,54.42
2019-01-22T03:13:48.184Z,54.41
2019-01-22T03:16:48.239Z,54.59
2019-01-22T03:19:27.096Z,54.36
2019-01-22T03:22:15.342Z,54.20
2019-01-22T03:25:21.606Z,54.33
2019-01-22T03:28:50.796Z,54.34
2019-01-22T03:31:30.034Z,54.46
2019-01-22T03:34:12.556Z,54.62
2019-01-22T03:37:03.443Z,54.46
2019-01-22T03:40:16.250Z,54.50
2019-01-22T03:43:17.719Z,54.83
2019-01-22T03:45:57.031Z,54.87
2019-01-22T03:49:08.219Z,54.81
2019-01-22T03:52:10.730Z,54.67
2019-01-22T03:55:36.721Z,54.50
2019-01-22T03:58:11.797Z,54.74
2019-01-22T04:01:00.355Z,55.05
2019-01-22T04:03:29.856Z,55.11
2019-01-22T04:06:02.326Z,55.03
2019-01-22T04:08:31.817Z,55.03
2019-01-22T04:11:16.107Z,55.17
2019-01-22T04:13:45.603Z,55.17
2019-01-22T04:16:15.077Z,55.17
2019-01-22T04:18:44.564Z,55.04
2019-01-22T04:21:16.245Z,55.17
2019-01-22T04:24:01.650Z,54.85
2019-01-22T04:27:04.142Z,54.93
2019-01-22T04:30:16.955Z,54.37
2019-01-22T04:33:17.700Z,54.77
2019-01-22T04:36:43.216Z,54.95
2019-01-22T04:39:44.951Z,54.86
2019-01-22T04:42:32.267Z,54.97
2019-01-22T04:45:28.916Z,54.99
2019-01-22T04:48:28.326Z,55.07
2019-01-22T04:51:25.680Z,54.96
2019-01-22T04:54:11.605Z,54.75
2019-01-22T04:57:08.735Z,54.94
2019-01-22T05:00:15.704Z,54.79
2019-01-22T05:03:08.350Z,55.21
2019-01-22T05:06:01.634Z,55.85
2019-01-22T05:09:06.267Z,56.32
2019-01-22T05:12:01.769Z,56.13
2019-01-22T05:15:08.828Z,55.93
2019-01-22T05:17:54.333Z,56.07
2019-01-22T05:20:30.944Z,55.74
2019-01-22T05:23:38.420Z,55.62
2019-01-22T05:26:53.254Z,55.71
2019-01-22T05:29:44.053Z,56.09
2019-01-22T05:32:38.392Z,56.01
2019-01-22T05:35:50.820Z,56.20
2019-01-22T05:38:49.345Z,56.30
2019-01-22T05:41:56.537Z,56.42
2019-01-22T05:45:10.169Z,56.44
2019-01-22T05:47:58.813Z,56.62
2019-01-22T05:51:05.681Z,56.77
2019-01-22T05:53:55.413Z,56.45
2019-01-22T05:56:33.805Z,56.19
2019-01-22T05:59:36.576Z,56.25
2019-01-22T06:02:37.941Z,56.33
2019-01-22T06:05:48.926Z,56.48
2019-01-22T06:08:49.357Z,56.78
2019-01-22T06:11:57.568Z,58.86
2019-01-22T06:14:41.499Z,57.59
2019-01-22T06:17:31.843Z,57.35
2019-01-22T06:21:01.041Z,57.28
2019-01-22T06:24:15.082Z,57.02
2019-01-22T06:27:21.533Z,57.88
2019-01-22T06:30:35.602Z,57.17
2019-01-22T06:33:49.423Z,56.84
2019-01-22T06:36:47.011Z,56.78
2019-01-22T06:40:04.184Z,56.52
2019-01-22T06:42:46.623Z,56.48
2019-01-22T06:45:45.833Z,56.59
2019-01-22T06:48:47.274Z,56.69
2019-01-22T06:51:31.330Z,56.59
2019-01-22T06:54:16.662Z,56.41
2019-01-22T06:56:57.664Z,56.41
2019-01-22T07:00:09.777Z,56.40
2019-01-22T07:02:55.370Z,56.51
2019-01-22T07:05:35.932Z,56.63
2019-01-22T07:08:31.534Z,56.60
2019-01-22T07:11:13.547Z,56.90
2019-01-22T07:14:11.406Z,57.01
2019-01-22T07:17:03.535Z,57.05
2019-01-22T07:20:11.433Z,57.63
2019-01-22T07:23:13.413Z,57.94
2019-01-22T07:26:01.044Z,58.39
2019-01-22T07:29:30.142Z,62.11
2019-01-22T07:32:27.179Z,58.19
2019-01-22T07:35:21.932Z,57.43
2019-01-22T07:38:00.429Z,58.12
2019-01-22T07:41:12.826Z,58.54
2019-01-22T07:43:58.813Z,58.79
2019-01-22T07:47:21.547Z,65.82
2019-01-22T07:49:59.784Z,58.83
2019-01-22T07:52:47.913Z,58.80
2019-01-22T07:55:52.447Z,58.71
2019-01-22T07:58:47.509Z,58.69
2019-01-22T08:02:01.508Z,58.37
2019-01-22T08:05:01.181Z,58.51
2019-01-22T08:07:51.085Z,58.82
2019-01-22T08:10:33.908Z,58.74
2019-01-22T08:13:47.614Z,58.47
2019-01-22T08:16:47.944Z,58.35
2019-01-22T08:19:44.222Z,58.61
2019-01-22T08:22:36.543Z,58.90
2019-01-22T08:25:32.687Z,58.61
2019-01-22T08:28:56.179Z,58.69
2019-01-22T08:32:13.126Z,58.62
2019-01-22T08:35:09.599Z,58.89
2019-01-22T08:38:10.981Z,59.27
2019-01-22T08:41:40.487Z,59.15
2019-01-22T08:44:36.090Z,59.20
2019-01-22T08:47:25.059Z,58.79
2019-01-22T08:50:22.473Z,58.01
2019-01-22T08:53:23.564Z,58.40
2019-01-22T08:56:25.330Z,57.97
2019-01-22T08:59:33.906Z,58.11
2019-01-22T09:02:40.516Z,59.48
2019-01-22T09:05:45.807Z,57.29
2019-01-22T09:08:33.698Z,57.01
2019-01-22T09:11:31.373Z,57.03
2019-01-22T09:14:36.253Z,55.79
2019-01-22T09:17:24.036Z,54.30
2019-01-22T09:20:02.343Z,57.36
2019-01-22T09:23:09.308Z,55.37
2019-01-22T09:25:48.578Z,56.58
2019-01-22T09:28:54.131Z,55.07
2019-01-22T09:32:02.635Z,56.01
2019-01-22T09:35:15.142Z,56.41
2019-01-22T09:37:52.222Z,56.19
2019-01-22T09:40:24.382Z,56.17
2019-01-22T09:42:52.973Z,56.05
2019-01-22T09:45:22.512Z,56.94
2019-01-22T09:47:51.981Z,57.30
2019-01-22T09:50:21.503Z,57.25
2019-01-22T09:52:50.996Z,56.48
2019-01-22T09:55:22.573Z,56.02
2019-01-22T09:57:51.756Z,55.76
2019-01-22T10:00:21.635Z,54.79
2019-01-22T10:02:51.126Z,54.00
2019-01-22T10:05:20.770Z,54.41
2019-01-22T10:07:50.320Z,53.86
2019-01-22T10:10:20.831Z,53.07
2019-01-22T10:12:50.333Z,51.92
2019-01-22T10:15:21.136Z,51.88
2019-01-22T10:17:50.707Z,52.48
2019-01-22T10:20:21.808Z,52.42
2019-01-22T10:22:51.394Z,53.06
2019-01-22T10:25:20.993Z,52.91
2019-01-22T10:27:50.489Z,52.66
2019-01-22T10:30:21.932Z,52.26
2019-01-22T10:32:51.585Z,51.89
2019-01-22T10:35:21.173Z,51.92
2019-01-22T10:37:50.720Z,51.31
2019-01-22T10:40:21.941Z,51.93
2019-01-22T10:42:51.755Z,51.55
2019-01-22T10:45:21.326Z,51.73
2019-01-22T10:47:50.816Z,51.11
2019-01-22T10:50:20.984Z,50.21
2019-01-22T10:52:50.519Z,50.46
2019-01-22T10:55:20.088Z,49.11
2019-01-22T10:57:49.646Z,49.19
2019-01-22T11:00:22.119Z,49.65
2019-01-22T11:02:51.612Z,50.00
2019-01-22T11:05:24.360Z,49.83
2019-01-22T11:07:53.852Z,49.79
2019-01-22T11:10:23.461Z,49.39
2019-01-22T11:12:53.007Z,49.60
2019-01-22T11:15:27.878Z,49.50
2019-01-22T11:17:53.779Z,48.00
2019-01-22T11:20:24.874Z,47.12
2019-01-22T11:22:54.383Z,47.37
2019-01-22T11:25:25.997Z,46.92
2019-01-22T11:27:55.586Z,47.46
2019-01-22T11:30:25.496Z,47.14
2019-01-22T11:32:54.999Z,46.96
2019-01-22T11:35:24.891Z,47.27
2019-01-22T11:37:54.456Z,47.20
2019-01-22T11:40:29.603Z,47.92
2019-01-22T11:42:59.166Z,47.46
2019-01-22T11:45:28.740Z,47.77
2019-01-22T11:47:58.234Z,46.87
2019-01-22T11:50:27.719Z,46.72
2019-01-22T11:52:57.259Z,46.91
2019-01-22T11:55:26.740Z,46.84
2019-01-22T11:57:56.236Z,47.08
2019-01-22T12:00:32.586Z,46.98
2019-01-22T12:03:02.076Z,46.58
2019-01-22T12:05:31.667Z,45.83
2019-01-22T12:08:02.258Z,45.85
2019-01-22T12:10:31.860Z,45.67
2019-01-22T12:13:01.397Z,44.92
2019-01-22T12:15:31.017Z,45.41
2019-01-22T12:18:00.622Z,45.56
2019-01-22T12:20:31.217Z,44.83
2019-01-22T12:23:00.813Z,45.72
2019-01-22T12:25:30.386Z,45.80
2019-01-22T12:27:59.967Z,46.12
2019-01-22T12:30:31.580Z,46.43
2019-01-22T12:33:01.261Z,46.20
2019-01-22T12:35:30.843Z,45.92
2019-01-22T12:38:00.451Z,46.25
2019-01-22T12:40:30.041Z,46.93
2019-01-22T12:42:59.643Z,45.76
2019-01-22T12:45:31.506Z,46.00
2019-01-22T12:48:01.086Z,45.29
2019-01-22T12:50:30.850Z,46.09
2019-01-22T12:53:00.331Z,45.73
2019-01-22T12:55:29.918Z,45.70
2019-01-22T12:57:59.441Z,45.04
2019-01-22T13:00:30.379Z,45.57
2019-01-22T13:02:59.951Z,45.85
2019-01-22T13:05:39.588Z,45.60
2019-01-22T13:08:09.149Z,45.56
2019-01-22T13:10:38.737Z,45.58
2019-01-22T13:13:08.306Z,45.25
2019-01-22T13:15:37.799Z,46.14
2019-01-22T13:18:07.448Z,46.20
2019-01-22T13:20:36.951Z,46.35
2019-01-22T13:23:06.566Z,46.12
2019-01-22T13:25:37.109Z,46.91
2019-01-22T13:28:06.699Z,46.50
2019-01-22T13:30:36.356Z,46.54
2019-01-22T13:33:05.914Z,45.54
2019-01-22T13:35:35.482Z,45.60
2019-01-22T13:38:05.453Z,45.76
2019-01-22T13:40:34.995Z,44.82
2019-01-22T13:43:05.020Z,46.45
2019-01-22T13:45:34.738Z,46.65
2019-01-22T13:48:05.483Z,47.20
2019-01-22T13:50:35.005Z,46.41
2019-01-22T13:53:04.956Z,47.55
2019-01-22T13:55:36.252Z,47.55
2019-01-22T13:58:06.173Z,46.60
2019-01-22T14:00:36.707Z,46.71
2019-01-22T14:03:06.659Z,47.32
2019-01-22T14:05:36.259Z,47.86
2019-01-22T14:08:05.888Z,48.66
2019-01-22T14:10:35.489Z,48.61
2019-01-22T14:13:05.299Z,48.22
2019-01-22T14:15:40.273Z,48.55
2019-01-22T14:18:11.543Z,47.16
2019-01-22T14:20:41.058Z,48.03
2019-01-22T14:23:10.559Z,67.73
2019-01-22T14:25:40.087Z,49.62
2019-01-22T14:28:09.572Z,56.23
2019-01-22T14:30:40.632Z,47.04
2019-01-22T14:33:10.108Z,47.68
2019-01-22T14:35:39.687Z,47.56
2019-01-22T14:38:09.255Z,47.77
2019-01-22T14:40:38.746Z,48.02
2019-01-22T14:43:08.249Z,48.22
2019-01-22T14:45:37.741Z,48.58
2019-01-22T14:48:07.221Z,48.43
2019-01-22T14:50:36.724Z,48.72
2019-01-22T14:53:06.216Z,48.54
2019-01-22T14:55:35.721Z,48.84
2019-01-22T14:58:05.489Z,49.73
2019-01-22T15:00:34.981Z,50.21
2019-01-22T15:03:04.480Z,50.69
2019-01-22T15:05:34.133Z,50.42
2019-01-22T15:08:04.609Z,50.07
2019-01-22T15:10:34.146Z,50.51
2019-01-22T15:13:03.788Z,50.01
2019-01-22T15:15:33.270Z,50.71
2019-01-22T15:18:02.765Z,51.24
2019-01-22T15:20:32.267Z,51.72
2019-01-22T15:23:01.766Z,51.99
2019-01-22T15:25:31.350Z,52.24
2019-01-22T15:28:00.816Z,52.44
2019-01-22T15:30:32.715Z,53.17
2019-01-22T15:33:02.280Z,52.91
2019-01-22T15:35:31.847Z,52.21
2019-01-22T15:38:01.351Z,51.69
2019-01-22T15:40:31.456Z,51.84
2019-01-22T15:43:00.948Z,52.19
2019-01-22T15:45:30.661Z,51.63
2019-01-22T15:48:00.132Z,51.12
2019-01-22T15:50:29.708Z,51.13
2019-01-22T15:52:59.282Z,50.38
2019-01-22T15:55:30.973Z,50.73
2019-01-22T15:58:00.465Z,50.59
2019-01-22T16:00:30.023Z,50.59
2019-01-22T16:02:59.501Z,50.91
2019-01-22T16:05:29.084Z,50.94
2019-01-22T16:07:58.577Z,51.14
2019-01-22T16:10:28.063Z,51.29
2019-01-22T16:12:57.566Z,51.26
2019-01-22T16:15:27.108Z,50.40
2019-01-22T16:17:56.592Z,50.55
2019-01-22T16:20:27.097Z,50.59
2019-01-22T16:22:56.660Z,50.77
2019-01-22T16:25:26.506Z,51.23
2019-01-22T16:27:57.411Z,51.07
2019-01-22T16:30:27.858Z,50.97
2019-01-22T16:32:57.531Z,52.21
2019-01-22T16:35:27.748Z,52.62
2019-01-22T16:49:07.537Z,51.64
2019-01-22T16:55:28.067Z,52.95
2019-01-22T16:57:57.635Z,53.28
2019-01-22T17:00:29.016Z,53.43
2019-01-22T17:02:58.610Z,53.00
2019-01-22T17:05:28.281Z,54.05
2019-01-22T17:07:57.768Z,54.05
2019-01-22T17:10:27.362Z,53.94
2019-01-22T17:12:56.917Z,54.01
2019-01-22T17:15:26.574Z,53.69
2019-01-22T17:17:56.053Z,53.27
2019-01-22T17:20:28.131Z,53.38
2019-01-22T17:23:01.988Z,53.55
2019-01-22T17:25:28.941Z,52.81
2019-01-22T17:27:58.688Z,52.78
2019-01-22T17:30:30.897Z,52.23
2019-01-22T17:33:05.328Z,52.59
2019-01-22T17:35:36.210Z,52.91
2019-01-22T17:38:05.792Z,53.38
2019-01-22T17:40:36.323Z,53.98
2019-01-22T17:43:08.797Z,54.89
2019-01-22T17:45:38.325Z,55.20
2019-01-22T17:48:08.525Z,56.20
2019-01-22T17:50:45.191Z,55.86
2019-01-22T17:53:14.714Z,55.67
2019-01-22T17:55:44.208Z,56.69
2019-01-22T17:58:13.863Z,56.81
2019-01-22T18:00:43.426Z,57.18
2019-01-22T18:03:12.988Z,57.76
2019-01-22T18:05:42.529Z,57.65
2019-01-22T18:08:12.147Z,58.62
2019-01-22T18:10:41.742Z,58.91
2019-01-22T18:13:11.791Z,59.18
2019-01-22T18:15:41.366Z,59.36
2019-01-22T18:18:10.867Z,60.10
2019-01-22T18:20:40.373Z,59.71
2019-01-22T18:23:09.994Z,60.21
2019-01-22T18:25:39.484Z,60.18
2019-01-22T18:28:11.039Z,59.94
2019-01-22T18:30:41.581Z,60.06
2019-01-22T18:33:11.177Z,60.10
2019-01-22T18:35:42.854Z,60.35
2019-01-22T18:38:14.474Z,60.45
2019-01-22T18:40:43.990Z,60.36
2019-01-22T18:43:14.191Z,60.72
2019-01-22T18:45:43.744Z,60.92
2019-01-22T18:48:13.203Z,60.89
2019-01-22T18:50:42.750Z,60.34
2019-01-22T18:53:12.659Z,59.99
2019-01-22T18:55:42.162Z,60.11
2019-01-22T18:58:11.699Z,60.43
2019-01-22T19:00:41.287Z,60.28
2019-01-22T19:03:10.873Z,59.87
2019-01-22T19:05:40.418Z,59.46
2019-01-22T19:08:09.894Z,58.83
2019-01-22T19:10:39.773Z,59.27
2019-01-22T19:13:09.337Z,59.25
2019-01-22T19:15:39.013Z,59.43
2019-01-22T19:18:08.593Z,59.05
2019-01-22T19:20:38.149Z,59.77
2019-01-22T19:23:07.638Z,59.28
2019-01-22T19:25:37.158Z,59.56
2019-01-22T19:28:06.739Z,59.65
2019-01-22T19:30:36.272Z,59.37
2019-01-22T19:33:05.935Z,59.26
2019-01-22T19:35:35.445Z,59.36
2019-01-22T19:38:05.024Z,58.87
2019-01-22T19:40:34.520Z,58.56
2019-01-22T19:43:04.201Z,58.50
2019-01-22T19:45:36.982Z,58.55
2019-01-22T19:48:07.017Z,58.87
2019-01-22T19:50:36.482Z,58.99
2019-01-22T19:53:07.076Z,58.42
2019-01-22T19:55:36.653Z,58.16
2019-01-22T19:58:06.226Z,58.24
2019-01-22T20:00:37.984Z,57.79
2019-01-22T20:03:08.506Z,57.66
2019-01-22T20:05:38.129Z,57.80
2019-01-22T20:08:08.201Z,58.00
2019-01-22T20:10:37.778Z,57.36
2019-01-22T20:13:07.421Z,57.55
2019-01-22T20:15:37.044Z,56.51
2019-01-22T20:18:06.701Z,57.32
2019-01-22T20:20:36.463Z,57.49
2019-01-22T20:23:06.996Z,57.50
2019-01-22T20:25:36.628Z,56.59
2019-01-22T20:28:06.145Z,56.26
2019-01-22T20:30:37.456Z,55.74
2019-01-22T20:33:06.991Z,55.39
2019-01-22T20:35:36.483Z,55.58
2019-01-22T20:38:06.703Z,55.66
2019-01-22T20:40:36.258Z,56.59
2019-01-22T20:43:05.893Z,57.15
2019-01-22T20:45:35.479Z,57.17
2019-01-22T20:48:05.793Z,57.46
2019-01-22T20:50:35.452Z,57.77
2019-01-22T20:53:05.035Z,57.49
2019-01-22T20:55:34.697Z,56.92
2019-01-22T20:58:04.499Z,57.09
2019-01-22T21:00:34.062Z,56.78
2019-01-22T21:03:03.650Z,57.47
2019-01-22T21:05:33.100Z,57.79
2019-01-22T21:08:02.619Z,58.05
2019-01-22T21:10:33.750Z,58.21
2019-01-22T21:13:03.354Z,58.21
2019-01-22T21:15:33.975Z,57.63
2019-01-22T21:18:03.527Z,57.84
2019-01-22T21:20:33.574Z,57.48
2019-01-22T21:23:03.171Z,57.29
2019-01-22T21:25:32.837Z,58.26
2019-01-22T21:28:02.422Z,58.46
2019-01-22T21:30:34.069Z,58.94
2019-01-22T21:33:04.528Z,57.85
2019-01-22T21:35:34.212Z,58.33
2019-01-22T21:38:03.872Z,57.84
2019-01-22T21:40:33.430Z,58.11
2019-01-22T21:43:04.281Z,58.78
2019-01-22T21:45:33.842Z,59.25
2019-01-22T21:48:03.359Z,58.86
2019-01-22T21:50:32.828Z,58.37
2019-01-22T21:53:02.438Z,59.12
2019-01-22T21:55:31.934Z,58.86
2019-01-22T21:58:01.529Z,58.19
2019-01-22T22:00:31.010Z,57.91
2019-01-22T22:03:00.530Z,57.54
2019-01-22T22:05:31.286Z,57.60
2019-01-22T22:08:00.961Z,57.45
2019-01-22T22:10:30.450Z,57.17
2019-01-22T22:13:00.002Z,56.75
2019-01-22T22:15:29.546Z,56.72
2019-01-22T22:17:59.109Z,56.90
2019-01-22T22:20:28.595Z,56.40
2019-01-22T22:22:58.472Z,56.57
2019-01-22T22:25:27.972Z,56.76
2019-01-22T22:27:57.521Z,56.34
2019-01-22T22:30:32.142Z,56.92
2019-01-22T22:33:02.694Z,56.91
2019-01-22T22:35:32.646Z,57.71
2019-01-22T22:38:02.285Z,57.18
2019-01-22T22:40:31.784Z,56.69
2019-01-22T22:43:01.264Z,56.93
2019-01-22T22:45:31.714Z,56.93
2019-01-22T22:48:01.215Z,56.89
2019-01-22T22:50:32.073Z,57.10
2019-01-22T22:53:01.646Z,57.31
2019-01-22T22:55:31.190Z,57.10
2019-01-22T22:58:00.676Z,57.02
2019-01-22T23:00:47.778Z,57.57
2019-01-22T23:03:19.072Z,57.96
2019-01-22T23:05:48.828Z,57.96
2019-01-22T23:08:18.311Z,57.36
2019-01-22T23:10:47.794Z,57.59
2019-01-22T23:13:17.375Z,57.60
2019-01-22T23:15:46.863Z,58.60
2019-01-22T23:18:16.570Z,58.44
2019-01-22T23:20:46.047Z,58.93
2019-01-22T23:23:15.549Z,60.10
2019-01-22T23:25:46.141Z,61.29
2019-01-22T23:28:15.668Z,61.46
2019-01-22T23:30:45.152Z,62.18
2019-01-22T23:33:14.640Z,62.52
2019-01-22T23:35:44.142Z,62.88
2019-01-22T23:38:13.651Z,62.51
2019-01-22T23:40:43.135Z,62.54
2019-01-22T23:43:12.645Z,63.08
2019-01-22T23:45:42.134Z,62.83
2019-01-22T23:48:12.519Z,62.52
2019-01-22T23:50:42.125Z,62.08
2019-01-22T23:53:11.799Z,61.60
2019-01-22T23:55:41.297Z,61.50
2019-01-22T23:58:10.844Z,60.76
